createdAt,value
2018-10-19T00:00:06.308Z,10.70
2018-10-19T00:02:33.756Z,10.50
2018-10-19T00:05:01.259Z,10.40
2018-10-19T00:07:28.698Z,10.30
2018-10-19T00:09:56.157Z,10.40
2018-10-19T00:12:23.662Z,10.40
2018-10-19T00:14:51.089Z,10.30
2018-10-19T00:17:18.456Z,10.40
2018-10-19T00:19:45.895Z,10.50
2018-10-19T00:22:13.382Z,10.40
2018-10-19T00:24:41.983Z,10.40
2018-10-19T00:27:09.406Z,10.00
2018-10-19T00:29:36.839Z,10.10
2018-10-19T00:32:04.346Z,10.10
2018-10-19T00:34:31.759Z,10.20
2018-10-19T00:36:59.180Z,10.10
2018-10-19T00:39:26.648Z,10.20
2018-10-19T00:41:54.064Z,10.10
2018-10-19T00:44:21.484Z,10.10
2018-10-19T00:46:48.900Z,10.10
2018-10-19T00:49:16.283Z,10.00
2018-10-19T00:51:43.741Z,10.00
2018-10-19T00:54:11.207Z,9.90
2018-10-19T00:56:38.582Z,10.00
2018-10-19T00:59:06.021Z,9.90
2018-10-19T01:01:33.435Z,10.00
2018-10-19T01:04:00.901Z,9.80
2018-10-19T01:06:28.304Z,9.70
2018-10-19T01:08:55.750Z,9.70
2018-10-19T01:11:23.468Z,9.60
2018-10-19T01:13:50.841Z,9.50
2018-10-19T01:16:18.145Z,9.60
2018-10-19T01:18:45.467Z,9.40
2018-10-19T01:21:12.947Z,9.30
2018-10-19T01:23:40.392Z,9.50
2018-10-19T01:26:07.816Z,9.60
2018-10-19T01:28:35.191Z,9.60
2018-10-19T01:31:02.623Z,9.50
2018-10-19T01:33:30.097Z,9.50
2018-10-19T01:35:57.569Z,9.50
2018-10-19T01:38:25.003Z,9.50
2018-10-19T01:40:52.422Z,9.40
2018-10-19T01:43:19.787Z,9.40
2018-10-19T01:45:52.999Z,9.40
2018-10-19T01:48:20.664Z,9.40
2018-10-19T01:50:48.094Z,9.40
2018-10-19T01:53:15.874Z,9.50
2018-10-19T01:55:43.188Z,9.20
2018-10-19T01:58:10.640Z,9.50
2018-10-19T02:00:38.130Z,9.20
2018-10-19T02:03:05.674Z,9.40
2018-10-19T02:05:33.066Z,9.40
2018-10-19T02:08:00.472Z,9.40
2018-10-19T02:10:27.878Z,9.20
2018-10-19T02:12:55.322Z,9.30
2018-10-19T02:15:22.916Z,9.10
2018-10-19T02:17:50.432Z,9.20
2018-10-19T02:20:17.867Z,9.20
2018-10-19T02:22:45.174Z,9.10
2018-10-19T02:25:12.690Z,9.20
2018-10-19T02:27:40.160Z,9.00
2018-10-19T02:30:07.694Z,9.00
2018-10-19T02:32:35.134Z,9.00
2018-10-19T02:35:02.620Z,9.00
2018-10-19T02:37:30.030Z,9.00
2018-10-19T02:39:57.828Z,9.00
2018-10-19T02:42:25.442Z,9.00
2018-10-19T02:44:54.590Z,9.00
2018-10-19T02:47:21.936Z,9.00
2018-10-19T02:49:49.380Z,8.90
2018-10-19T02:52:16.805Z,8.80
2018-10-19T02:54:44.276Z,8.80
2018-10-19T02:57:11.751Z,8.60
2018-10-19T02:59:39.154Z,8.70
2018-10-19T03:02:06.744Z,8.80
2018-10-19T03:04:34.184Z,8.80
2018-10-19T03:07:01.654Z,8.80
2018-10-19T03:09:29.072Z,8.80
2018-10-19T03:11:56.422Z,8.70
2018-10-19T03:14:23.842Z,8.80
2018-10-19T03:16:51.212Z,8.80
2018-10-19T03:19:18.628Z,8.60
2018-10-19T03:21:45.983Z,8.40
2018-10-19T03:24:13.373Z,8.30
2018-10-19T03:26:40.774Z,8.40
2018-10-19T03:29:08.222Z,8.50
2018-10-19T03:31:35.531Z,8.40
2018-10-19T03:34:03.320Z,8.40
2018-10-19T03:36:30.750Z,8.40
2018-10-19T03:38:58.146Z,8.30
2018-10-19T03:41:25.545Z,8.40
2018-10-19T03:43:53.040Z,8.30
2018-10-19T03:46:20.475Z,8.40
2018-10-19T03:48:47.797Z,8.40
2018-10-19T03:51:15.305Z,8.30
2018-10-19T03:53:42.637Z,8.30
2018-10-19T03:59:29.965Z,8.10
2018-10-19T04:01:58.107Z,8.10
2018-10-19T04:04:30.290Z,8.10
2018-10-19T04:07:05.157Z,8.30
2018-10-19T04:09:33.739Z,8.20
2018-10-19T04:12:01.174Z,8.10
2018-10-19T04:14:29.186Z,8.10
2018-10-19T04:16:56.948Z,8.10
2018-10-19T04:19:24.629Z,7.90
2018-10-19T04:21:53.415Z,8.10
2018-10-19T04:24:20.971Z,8.00
2018-10-19T04:26:48.375Z,8.00
2018-10-19T04:29:15.865Z,8.10
2018-10-19T04:31:43.363Z,8.10
2018-10-19T04:34:10.755Z,7.80
2018-10-19T04:36:38.193Z,7.90
2018-10-19T04:39:07.073Z,7.90
2018-10-19T04:41:34.626Z,7.90
2018-10-19T04:44:02.023Z,8.00
2018-10-19T04:46:29.375Z,7.80
2018-10-19T04:48:56.819Z,7.70
2018-10-19T04:51:24.409Z,7.70
2018-10-19T04:53:51.980Z,7.70
2018-10-19T04:56:19.514Z,7.80
2018-10-19T04:58:46.977Z,7.80
2018-10-19T05:01:14.393Z,7.80
2018-10-19T05:03:41.869Z,7.80
2018-10-19T05:06:09.394Z,7.80
2018-10-19T05:08:36.690Z,7.80
2018-10-19T05:11:04.510Z,7.80
2018-10-19T05:13:31.841Z,7.80
2018-10-19T05:15:59.281Z,7.80
2018-10-19T05:18:26.660Z,7.90
2018-10-19T05:20:54.069Z,7.80
2018-10-19T05:23:21.485Z,7.80
2018-10-19T05:25:48.912Z,7.70
2018-10-19T05:28:16.331Z,7.90
2018-10-19T05:30:43.798Z,7.80
2018-10-19T05:33:11.194Z,7.90
2018-10-19T05:35:38.573Z,7.80
2018-10-19T05:38:06.000Z,7.80
2018-10-19T05:40:33.489Z,7.70
2018-10-19T05:43:00.978Z,7.70
2018-10-19T05:45:28.551Z,7.60
2018-10-19T05:47:56.820Z,7.60
2018-10-19T05:50:24.386Z,7.70
2018-10-19T05:52:51.851Z,7.70
2018-10-19T05:55:19.262Z,7.70
2018-10-19T05:57:46.668Z,7.80
2018-10-19T06:00:14.115Z,7.80
2018-10-19T06:02:41.594Z,7.90
2018-10-19T06:05:09.138Z,7.70
2018-10-19T06:07:36.772Z,7.80
2018-10-19T06:10:05.416Z,7.70
2018-10-19T06:12:32.850Z,7.70
2018-10-19T06:15:00.283Z,7.80
2018-10-19T06:17:27.669Z,7.90
2018-10-19T06:19:55.159Z,8.10
2018-10-19T06:22:22.637Z,8.00
2018-10-19T06:24:50.349Z,8.00
2018-10-19T06:27:22.457Z,8.10
2018-10-19T06:29:54.340Z,8.10
2018-10-19T06:32:26.497Z,7.90
2018-10-19T06:34:55.861Z,7.80
2018-10-19T06:37:25.899Z,7.90
2018-10-19T06:39:55.256Z,8.00
2018-10-19T06:42:26.656Z,8.20
2018-10-19T06:44:56.824Z,8.20
2018-10-19T06:47:27.177Z,8.40
2018-10-19T06:49:56.318Z,8.60
2018-10-19T06:52:26.831Z,8.50
2018-10-19T06:54:56.997Z,8.40
2018-10-19T06:57:26.441Z,8.50
2018-10-19T06:59:59.517Z,8.80
2018-10-19T07:02:35.268Z,9.20
2018-10-19T07:05:06.509Z,9.40
2018-10-19T07:07:39.297Z,9.50
2018-10-19T07:10:07.725Z,9.50
2018-10-19T07:12:35.280Z,9.50
2018-10-19T07:15:04.985Z,9.50
2018-10-19T07:17:32.799Z,9.70
2018-10-19T07:20:00.590Z,9.90
2018-10-19T07:22:34.950Z,10.00
2018-10-19T07:25:02.563Z,10.10
2018-10-19T07:27:30.107Z,10.20
2018-10-19T07:29:58.593Z,10.30
2018-10-19T07:32:26.074Z,10.30
2018-10-19T07:34:53.661Z,10.50
2018-10-19T07:37:21.313Z,10.60
2018-10-19T07:39:48.723Z,10.70
2018-10-19T07:42:16.223Z,10.80
2018-10-19T07:44:43.545Z,10.80
2018-10-19T07:47:11.086Z,10.80
2018-10-19T07:49:38.439Z,11.40
2018-10-19T07:52:06.576Z,12.20
2018-10-19T07:54:34.048Z,11.90
2018-10-19T07:57:01.751Z,11.70
2018-10-19T07:59:29.586Z,11.60
2018-10-19T08:01:59.352Z,11.70
2018-10-19T08:04:26.984Z,11.40
2018-10-19T08:06:54.730Z,11.50
2018-10-19T08:09:22.131Z,11.60
2018-10-19T08:11:49.514Z,11.50
2018-10-19T08:14:17.076Z,11.40
2018-10-19T08:16:44.594Z,11.70
2018-10-19T08:19:15.761Z,11.90
2018-10-19T08:24:29.026Z,12.00
2018-10-19T08:27:21.094Z,11.90
2018-10-19T08:30:38.444Z,11.90
2018-10-19T08:40:05.419Z,13.50
2018-10-19T08:43:05.727Z,13.80
2018-10-19T08:49:24.268Z,14.60
2018-10-19T08:52:21.626Z,14.70
2018-10-19T08:55:35.404Z,14.60
2018-10-19T09:04:38.262Z,15.10
2018-10-19T09:14:04.986Z,15.80
2018-10-19T09:16:52.893Z,15.80
2018-10-19T09:24:16.826Z,16.00
2018-10-19T09:27:57.695Z,16.30
2018-10-19T09:38:16.121Z,16.50
2018-10-19T09:41:09.432Z,16.80
2018-10-19T09:51:04.562Z,17.30
2018-10-19T09:53:59.521Z,17.30
2018-10-19T10:00:01.007Z,17.40
2018-10-19T10:06:26.735Z,17.60
2018-10-19T10:09:30.302Z,18.10
2018-10-19T10:12:28.999Z,18.40
2018-10-19T10:18:38.429Z,18.00
2018-10-19T10:25:20.055Z,18.30
2018-10-19T10:27:47.437Z,18.90
2018-10-19T10:30:14.820Z,18.80
2018-10-19T10:32:42.321Z,19.00
2018-10-19T10:35:10.039Z,18.80
2018-10-19T10:37:37.755Z,19.00
2018-10-19T10:40:05.958Z,19.10
2018-10-19T10:42:33.371Z,19.40
2018-10-19T10:45:00.821Z,19.70
2018-10-19T10:47:28.345Z,19.30
2018-10-19T10:49:55.845Z,19.50
2018-10-19T10:52:23.223Z,19.80
2018-10-19T10:54:50.661Z,19.80
2018-10-19T10:57:18.086Z,19.60
2018-10-19T10:59:45.638Z,19.00
2018-10-19T11:02:13.012Z,19.20
2018-10-19T11:04:40.870Z,19.40
2018-10-19T11:07:08.428Z,19.50
2018-10-19T11:09:35.850Z,19.50
2018-10-19T11:12:03.662Z,20.10
2018-10-19T11:14:31.071Z,20.40
2018-10-19T11:16:58.448Z,20.00
2018-10-19T11:19:25.910Z,20.00
2018-10-19T11:21:53.373Z,20.10
2018-10-19T11:24:20.872Z,20.40
2018-10-19T11:26:48.354Z,20.40
2018-10-19T11:29:15.842Z,20.40
2018-10-19T11:31:43.324Z,20.50
2018-10-19T11:34:10.768Z,19.90
2018-10-19T11:36:38.294Z,20.00
2018-10-19T11:39:06.678Z,19.70
2018-10-19T11:41:34.163Z,19.60
2018-10-19T11:44:01.694Z,19.80
2018-10-19T11:46:29.136Z,19.50
2018-10-19T11:48:56.684Z,19.80
2018-10-19T11:51:23.984Z,19.60
2018-10-19T11:53:51.497Z,20.00
2018-10-19T11:56:18.977Z,20.60
2018-10-19T11:58:46.438Z,21.00
2018-10-19T12:01:13.951Z,21.20
2018-10-19T12:03:41.360Z,20.50
2018-10-19T12:06:08.780Z,20.80
2018-10-19T12:08:36.177Z,20.90
2018-10-19T12:11:03.850Z,21.20
2018-10-19T12:13:31.303Z,21.50
2018-10-19T12:15:58.883Z,21.60
2018-10-19T12:18:26.260Z,21.50
2018-10-19T12:20:53.778Z,21.60
2018-10-19T12:23:21.112Z,21.90
2018-10-19T12:25:48.556Z,21.80
2018-10-19T12:28:16.014Z,22.10
2018-10-19T12:30:43.399Z,21.70
2018-10-19T12:33:10.946Z,21.90
2018-10-19T12:35:38.391Z,21.60
2018-10-19T12:38:05.723Z,21.70
2018-10-19T12:40:33.281Z,21.50
2018-10-19T12:43:00.695Z,20.70
2018-10-19T12:46:38.621Z,20.70
2018-10-19T12:49:06.321Z,20.50
2018-10-19T12:51:34.128Z,20.50
2018-10-19T12:54:01.733Z,20.00
2018-10-19T12:56:29.039Z,19.90
2018-10-19T12:58:56.531Z,19.60
2018-10-19T13:01:25.369Z,19.10
2018-10-19T13:03:52.871Z,19.20
2018-10-19T13:06:20.237Z,19.80
2018-10-19T13:08:47.783Z,20.20
2018-10-19T13:11:15.221Z,20.20
2018-10-19T13:13:42.717Z,19.90
2018-10-19T13:16:10.178Z,19.90
2018-10-19T13:18:37.573Z,20.10
2018-10-19T13:21:05.126Z,20.40
2018-10-19T13:23:33.331Z,20.70
2018-10-19T13:26:01.001Z,20.80
2018-10-19T13:28:28.607Z,20.90
2018-10-19T13:30:56.134Z,21.10
2018-10-19T13:33:23.576Z,20.90
2018-10-19T13:35:51.031Z,21.10
2018-10-19T13:38:20.173Z,21.20
2018-10-19T13:40:47.941Z,21.00
2018-10-19T13:43:15.346Z,21.20
2018-10-19T13:45:42.782Z,21.50
2018-10-19T13:48:10.238Z,21.70
2018-10-19T13:50:37.629Z,22.00
2018-10-19T13:53:05.265Z,21.80
2018-10-19T13:55:32.698Z,21.40
2018-10-19T13:58:00.116Z,21.10
2018-10-19T14:00:27.500Z,20.70
2018-10-19T14:02:55.930Z,20.30
2018-10-19T14:05:23.490Z,20.30
2018-10-19T14:07:50.749Z,20.20
2018-10-19T14:10:18.206Z,19.90
2018-10-19T14:12:45.676Z,20.40
2018-10-19T14:15:13.259Z,20.80
2018-10-19T14:17:41.158Z,20.50
2018-10-19T14:20:10.541Z,20.80
2018-10-19T14:22:37.937Z,21.00
2018-10-19T14:25:06.946Z,21.00
2018-10-19T14:27:34.867Z,20.90
2018-10-19T14:30:02.278Z,21.10
2018-10-19T14:32:29.666Z,20.40
2018-10-19T14:34:57.797Z,20.30
2018-10-19T14:37:25.280Z,20.30
2018-10-19T14:39:53.002Z,20.30
2018-10-19T14:42:20.374Z,20.40
2018-10-19T14:44:47.722Z,20.10
2018-10-19T14:47:16.657Z,19.80
2018-10-19T14:49:44.219Z,19.70
2018-10-19T14:52:13.528Z,19.30
2018-10-19T14:54:40.979Z,19.20
2018-10-19T14:57:08.462Z,19.10
2018-10-19T14:59:35.788Z,19.00
2018-10-19T15:02:03.260Z,18.90
2018-10-19T15:04:30.685Z,18.90
2018-10-19T15:06:58.144Z,18.60
2018-10-19T15:09:25.817Z,18.50
2018-10-19T15:11:53.032Z,18.50
2018-10-19T15:14:20.474Z,18.50
2018-10-19T15:16:47.905Z,18.50
2018-10-19T15:19:15.356Z,18.50
2018-10-19T15:21:42.791Z,18.50
2018-10-19T15:24:10.465Z,18.30
2018-10-19T15:26:37.999Z,18.40
2018-10-19T15:29:05.492Z,18.20
2018-10-19T15:31:32.831Z,18.00
2018-10-19T15:34:00.196Z,17.70
2018-10-19T15:36:27.587Z,17.60
2018-10-19T15:38:55.399Z,17.50
2018-10-19T15:41:22.911Z,17.40
2018-10-19T15:43:50.307Z,17.30
2018-10-19T15:46:17.779Z,17.20
2018-10-19T15:48:45.288Z,17.20
2018-10-19T15:51:12.837Z,17.10
2018-10-19T15:53:40.229Z,17.00
2018-10-19T15:56:07.627Z,16.90
2018-10-19T15:58:35.074Z,16.80
2018-10-19T16:01:02.613Z,16.70
2018-10-19T16:03:30.025Z,16.70
2018-10-19T16:05:57.490Z,16.60
2018-10-19T16:08:24.885Z,16.60
2018-10-19T16:10:52.470Z,16.50
2018-10-19T16:13:19.939Z,16.50
2018-10-19T16:15:47.492Z,16.40
2018-10-19T16:18:14.975Z,16.40
2018-10-19T16:20:42.377Z,16.20
2018-10-19T16:23:09.823Z,16.00
2018-10-19T16:25:37.342Z,15.90
2018-10-19T16:28:05.026Z,15.80
2018-10-19T16:30:32.504Z,15.70
2018-10-19T16:32:59.974Z,15.60
2018-10-19T16:35:27.416Z,15.40
2018-10-19T16:37:54.948Z,15.30
2018-10-19T16:40:22.412Z,15.30
2018-10-19T16:42:49.903Z,15.20
2018-10-19T16:45:17.415Z,15.20
2018-10-19T16:47:44.939Z,15.10
2018-10-19T16:50:12.454Z,15.00
2018-10-19T16:52:40.014Z,15.00
2018-10-19T16:55:07.394Z,14.90
2018-10-19T16:57:34.837Z,14.80
2018-10-19T17:00:02.484Z,14.70
2018-10-19T17:02:29.838Z,14.70
2018-10-19T17:04:57.638Z,14.70
2018-10-19T17:07:25.138Z,14.60
2018-10-19T17:09:53.294Z,14.60
2018-10-19T17:12:20.762Z,14.50
2018-10-19T17:14:48.286Z,14.50
2018-10-19T17:17:15.661Z,14.40
2018-10-19T17:19:43.012Z,14.30
2018-10-19T17:22:10.452Z,14.20
2018-10-19T17:24:38.076Z,14.10
2018-10-19T17:27:05.757Z,14.10
2018-10-19T17:29:33.123Z,14.10
2018-10-19T17:32:00.642Z,14.10
2018-10-19T17:34:28.137Z,14.00
2018-10-19T17:36:55.700Z,14.00
2018-10-19T17:39:23.155Z,13.90
2018-10-19T17:41:50.666Z,13.80
2018-10-19T17:44:18.093Z,13.70
2018-10-19T17:46:45.553Z,13.70
2018-10-19T17:49:13.165Z,13.70
2018-10-19T17:51:40.508Z,13.60
2018-10-19T17:54:07.971Z,13.50
2018-10-19T17:56:35.368Z,13.60
2018-10-19T17:59:02.960Z,13.50
2018-10-19T18:01:30.402Z,13.50
2018-10-19T18:03:58.026Z,13.40
2018-10-19T18:06:25.532Z,13.40
2018-10-19T18:08:52.957Z,13.20
2018-10-19T18:11:20.335Z,13.10
2018-10-19T18:13:48.647Z,12.90
2018-10-19T18:16:16.036Z,13.10
2018-10-19T18:18:44.161Z,13.00
2018-10-19T18:21:11.733Z,12.90
2018-10-19T18:23:39.405Z,12.90
2018-10-19T18:26:06.893Z,12.90
2018-10-19T18:28:34.355Z,12.90
2018-10-19T18:31:01.845Z,12.80
2018-10-19T18:33:29.394Z,12.80
2018-10-19T18:35:58.191Z,12.80
2018-10-19T18:44:32.843Z,12.70
2018-10-19T18:47:00.957Z,12.60
2018-10-19T18:49:28.458Z,12.50
2018-10-19T18:51:56.451Z,12.40
2018-10-19T18:54:31.433Z,12.40
2018-10-19T19:01:18.958Z,12.30
2018-10-19T19:11:06.568Z,12.00
2018-10-19T19:14:06.491Z,12.00
2018-10-19T19:17:04.398Z,12.00
2018-10-19T19:27:45.250Z,11.90
2018-10-19T19:30:55.448Z,11.80
2018-10-19T19:37:01.262Z,11.60
2018-10-19T19:43:31.508Z,11.70
2018-10-19T19:46:26.793Z,11.60
2018-10-19T19:49:21.102Z,11.50
2018-10-19T19:52:35.414Z,11.50
2018-10-19T19:55:27.556Z,11.50
2018-10-19T19:58:23.557Z,11.50
2018-10-19T20:01:20.444Z,11.40
2018-10-19T20:11:32.646Z,11.10
2018-10-19T20:17:54.354Z,11.00
2018-10-19T20:53:20.774Z,10.80
2018-10-19T21:13:10.486Z,10.10
2018-10-19T21:15:41.395Z,10.00
2018-10-19T21:18:13.293Z,9.70
2018-10-19T21:20:41.053Z,9.80
2018-10-19T21:23:08.842Z,9.70
2018-10-19T21:25:36.337Z,9.80
2018-10-19T21:28:03.793Z,9.80
2018-10-19T21:30:31.241Z,9.80
2018-10-19T21:32:58.674Z,9.90
2018-10-19T21:35:26.175Z,9.90
2018-10-19T21:37:53.612Z,9.90
2018-10-19T21:40:21.046Z,9.90
2018-10-19T21:42:48.445Z,9.70
2018-10-19T21:45:15.819Z,9.70
2018-10-19T21:47:43.303Z,9.60
2018-10-19T21:50:10.896Z,9.60
2018-10-19T21:52:38.233Z,9.50
2018-10-19T21:55:06.687Z,9.50
2018-10-19T21:57:34.079Z,9.40
2018-10-19T22:00:01.531Z,9.40
2018-10-19T22:02:28.990Z,9.40
2018-10-19T22:04:56.484Z,9.40
2018-10-19T22:07:23.914Z,9.50
2018-10-19T22:09:51.889Z,9.50
2018-10-19T22:12:19.274Z,9.50
2018-10-19T22:14:46.803Z,9.40
2018-10-19T22:17:14.376Z,9.30
2018-10-19T22:19:41.700Z,9.20
2018-10-19T22:22:09.123Z,9.00
2018-10-19T22:24:36.650Z,9.10
2018-10-19T22:27:04.173Z,9.20
2018-10-19T22:29:31.540Z,9.10
2018-10-19T22:31:59.070Z,9.10
2018-10-19T22:34:26.419Z,9.10
2018-10-19T22:36:53.904Z,9.00
2018-10-19T22:39:21.357Z,8.90
2018-10-19T22:41:48.781Z,8.90
2018-10-19T22:44:16.257Z,9.00
2018-10-19T22:46:43.713Z,8.80
2018-10-19T22:49:11.242Z,8.90
2018-10-19T22:51:38.759Z,9.10
2018-10-19T22:54:06.189Z,9.00
2018-10-19T22:56:33.605Z,8.80
2018-10-19T22:59:01.010Z,8.70
2018-10-19T23:01:28.463Z,9.00
2018-10-19T23:03:55.787Z,8.90
2018-10-19T23:06:23.240Z,8.80
2018-10-19T23:08:50.669Z,8.90
2018-10-19T23:11:18.074Z,9.00
2018-10-19T23:13:45.548Z,9.10
2018-10-19T23:16:13.029Z,9.30
2018-10-19T23:18:40.494Z,9.20
2018-10-19T23:21:07.927Z,9.10
2018-10-19T23:23:35.354Z,8.90
2018-10-19T23:26:02.925Z,9.10
2018-10-19T23:28:30.689Z,9.00
2018-10-19T23:30:58.152Z,9.00
2018-10-19T23:33:25.523Z,9.00
2018-10-19T23:35:53.004Z,9.00
2018-10-19T23:38:20.385Z,9.00
2018-10-19T23:40:47.876Z,8.90
2018-10-19T23:43:15.325Z,8.90
2018-10-19T23:45:42.735Z,8.90
2018-10-19T23:48:10.107Z,9.00
2018-10-19T23:50:37.463Z,9.00
2018-10-19T23:53:05.075Z,9.00
2018-10-19T23:55:32.515Z,8.90
2018-10-19T23:58:00.196Z,8.80
